createdAt,value
2022-08-17T00:00:42.830Z,15.17
2022-08-17T00:03:10.738Z,16.53
2022-08-17T00:05:42.452Z,16.80
2022-08-17T00:08:10.681Z,15.43
2022-08-17T00:10:39.544Z,16.97
2022-08-17T00:13:10.052Z,15.80
2022-08-17T00:15:38.032Z,16.07
2022-08-17T00:19:06.565Z,18.17
2022-08-17T00:20:56.468Z,20.97
2022-08-17T00:23:25.328Z,19.37
2022-08-17T00:25:54.115Z,18.67
2022-08-17T00:28:22.459Z,21.40
2022-08-17T00:30:53.156Z,20.13
2022-08-17T00:33:26.511Z,21.57
2022-08-17T00:35:56.405Z,20.80
2022-08-17T00:38:25.342Z,22.77
2022-08-17T00:40:55.971Z,22.97
2022-08-17T00:43:31.717Z,22.17
2022-08-17T00:46:01.188Z,22.53
2022-08-17T00:48:31.631Z,21.90
2022-08-17T00:51:04.188Z,22.07
2022-08-17T00:53:34.642Z,24.13
2022-08-17T00:56:07.048Z,22.50
2022-08-17T00:58:36.854Z,21.57
2022-08-17T01:01:06.174Z,21.97
2022-08-17T01:03:37.892Z,21.30
2022-08-17T01:06:07.529Z,21.73
2022-08-17T01:08:37.036Z,22.13
2022-08-17T01:11:06.173Z,24.03
2022-08-17T01:13:41.078Z,22.37
2022-08-17T01:16:16.832Z,23.87
2022-08-17T01:18:49.943Z,23.80
2022-08-17T01:21:27.734Z,22.23
2022-08-17T01:23:57.330Z,23.20
2022-08-17T01:26:25.380Z,23.67
2022-08-17T01:28:55.937Z,23.83
2022-08-17T01:31:28.651Z,24.00
2022-08-17T01:33:58.606Z,23.67
2022-08-17T01:36:28.600Z,25.17
2022-08-17T01:38:57.914Z,25.93
2022-08-17T01:41:25.849Z,23.63
2022-08-17T01:43:58.228Z,24.33
2022-08-17T01:46:33.390Z,24.47
2022-08-17T01:49:02.031Z,25.93
2022-08-17T01:51:33.249Z,25.93
2022-08-17T01:54:06.878Z,25.63
2022-08-17T01:56:37.659Z,24.83
2022-08-17T01:59:06.351Z,23.97
2022-08-17T02:01:36.117Z,23.97
2022-08-17T02:04:04.647Z,25.07
2022-08-17T02:06:44.956Z,24.17
2022-08-17T02:09:16.795Z,23.63
2022-08-17T02:11:46.409Z,22.83
2022-08-17T02:14:15.261Z,24.10
2022-08-17T02:16:43.691Z,25.10
2022-08-17T02:19:14.365Z,25.53
2022-08-17T02:21:43.757Z,24.47
2022-08-17T02:24:16.579Z,25.13
2022-08-17T02:26:46.239Z,25.47
2022-08-17T02:29:15.747Z,25.97
2022-08-17T02:31:44.652Z,27.33
2022-08-17T02:34:12.962Z,26.83
2022-08-17T02:36:41.399Z,25.57
2022-08-17T02:39:12.179Z,26.53
2022-08-17T02:41:41.852Z,27.13
2022-08-17T02:44:09.794Z,27.03
2022-08-17T02:46:38.664Z,26.70
2022-08-17T02:49:06.565Z,25.67
2022-08-17T02:51:35.196Z,25.23
2022-08-17T02:54:39.170Z,26.50
2022-08-17T02:56:52.830Z,27.37
2022-08-17T02:59:20.720Z,27.37
2022-08-17T03:01:48.731Z,27.30
2022-08-17T03:04:16.749Z,27.20
2022-08-17T03:06:44.623Z,27.67
2022-08-17T03:09:13.128Z,27.83
2022-08-17T03:11:41.028Z,27.97
2022-08-17T03:14:10.437Z,27.87
2022-08-17T03:16:38.372Z,29.30
2022-08-17T03:19:07.211Z,27.53
2022-08-17T03:21:35.176Z,28.93
2022-08-17T03:24:08.800Z,29.67
2022-08-17T03:26:37.083Z,26.67
2022-08-17T03:29:05.016Z,27.80
2022-08-17T03:31:34.194Z,28.30
2022-08-17T03:34:05.083Z,29.97
2022-08-17T03:36:35.905Z,29.93
2022-08-17T03:39:05.129Z,29.13
2022-08-17T03:41:33.509Z,29.67
2022-08-17T03:44:01.506Z,28.33
2022-08-17T03:46:47.205Z,26.83
2022-08-17T03:49:33.963Z,29.33
2022-08-17T03:52:19.465Z,28.43
2022-08-17T03:55:04.775Z,26.43
2022-08-17T03:57:33.380Z,28.17
2022-08-17T04:00:01.379Z,25.70
2022-08-17T04:02:40.370Z,26.73
2022-08-17T04:05:10.127Z,25.40
2022-08-17T04:07:38.037Z,27.27
2022-08-17T04:10:06.822Z,26.57
2022-08-17T04:12:45.950Z,24.30
2022-08-17T04:15:14.196Z,25.53
2022-08-17T04:17:44.136Z,28.53
2022-08-17T04:20:15.008Z,23.73
2022-08-17T04:22:57.275Z,28.57
2022-08-17T04:25:25.560Z,28.03
2022-08-17T04:27:53.447Z,29.57
2022-08-17T04:30:21.848Z,32.17
2022-08-17T04:33:06.271Z,26.93
2022-08-17T04:35:40.234Z,33.63
2022-08-17T04:38:10.070Z,34.07
2022-08-17T04:40:55.673Z,35.97
2022-08-17T04:43:26.367Z,35.73
2022-08-17T04:45:57.360Z,36.50
2022-08-17T04:48:34.725Z,35.57
2022-08-17T04:51:06.896Z,37.00
2022-08-17T04:53:34.787Z,36.07
2022-08-17T04:56:02.826Z,37.03
2022-08-17T04:58:30.737Z,39.43
2022-08-17T05:00:58.697Z,35.40
2022-08-17T05:03:27.329Z,33.67
2022-08-17T05:05:55.214Z,36.83
2022-08-17T05:08:24.599Z,39.03
2022-08-17T05:10:52.618Z,41.10
2022-08-17T05:13:23.376Z,34.00
2022-08-17T05:15:55.824Z,35.20
2022-08-17T05:18:24.691Z,37.40
2022-08-17T05:20:53.338Z,45.50
2022-08-17T05:23:23.198Z,37.03
2022-08-17T05:25:55.551Z,35.80
2022-08-17T05:28:27.385Z,35.93
2022-08-17T05:30:57.052Z,35.67
2022-08-17T05:33:27.507Z,36.63
2022-08-17T05:35:57.663Z,36.63
2022-08-17T05:38:27.348Z,33.27
2022-08-17T05:40:57.883Z,36.93
2022-08-17T05:43:27.995Z,37.87
2022-08-17T05:46:03.133Z,38.37
2022-08-17T05:48:40.066Z,40.63
2022-08-17T05:51:34.841Z,37.07
2022-08-17T05:54:22.721Z,40.03
2022-08-17T05:57:07.497Z,41.13
2022-08-17T05:59:44.409Z,44.27
2022-08-17T06:02:21.897Z,45.83
2022-08-17T06:05:06.444Z,40.83
2022-08-17T06:07:46.743Z,39.83
2022-08-17T06:10:24.176Z,41.63
2022-08-17T06:13:02.232Z,42.33
2022-08-17T06:15:37.431Z,39.67
2022-08-17T06:18:09.007Z,42.80
2022-08-17T06:20:50.004Z,41.93
2022-08-17T06:23:26.542Z,43.63
2022-08-17T06:25:58.615Z,43.87
2022-08-17T06:28:36.303Z,38.13
2022-08-17T06:31:11.139Z,38.60
2022-08-17T06:33:41.058Z,38.73
2022-08-17T06:36:23.456Z,40.17
2022-08-17T06:39:00.604Z,42.43
2022-08-17T06:41:42.795Z,39.40
2022-08-17T06:44:44.766Z,40.30
2022-08-17T06:47:13.491Z,35.53
2022-08-17T06:49:54.616Z,31.97
2022-08-17T06:52:46.552Z,36.50
2022-08-17T06:55:22.290Z,38.30
2022-08-17T06:57:58.527Z,38.80
2022-08-17T07:00:33.473Z,35.03
2022-08-17T07:03:11.108Z,37.83
2022-08-17T07:05:43.699Z,32.40
2022-08-17T07:08:19.159Z,37.47
2022-08-17T07:10:51.939Z,38.10
2022-08-17T07:13:38.753Z,37.23
2022-08-17T07:16:17.064Z,38.43
2022-08-17T07:18:45.823Z,38.20
2022-08-17T07:21:26.952Z,33.67
2022-08-17T07:24:30.304Z,36.87
2022-08-17T07:27:07.927Z,32.13
2022-08-17T07:29:40.847Z,29.67
2022-08-17T07:32:12.251Z,33.73
2022-08-17T07:35:04.545Z,30.60
2022-08-17T07:37:34.211Z,30.03
2022-08-17T07:40:33.449Z,28.63
2022-08-17T07:43:04.961Z,30.00
2022-08-17T07:45:52.427Z,27.40
2022-08-17T07:48:25.862Z,26.63
2022-08-17T07:50:53.896Z,26.37
2022-08-17T07:53:24.190Z,29.17
2022-08-17T07:55:54.243Z,28.30
2022-08-17T07:58:24.440Z,25.00
2022-08-17T08:01:07.629Z,29.20
2022-08-17T08:03:42.498Z,26.93
2022-08-17T08:06:21.183Z,25.50
2022-08-17T08:08:52.945Z,25.13
2022-08-17T08:11:32.078Z,23.50
2022-08-17T08:14:28.585Z,26.17
2022-08-17T08:16:59.988Z,25.87
2022-08-17T08:19:31.318Z,23.50
2022-08-17T08:22:07.592Z,21.73
2022-08-17T08:25:07.208Z,23.37
2022-08-17T08:27:44.303Z,22.63
2022-08-17T08:30:16.635Z,23.57
2022-08-17T08:33:10.128Z,24.80
2022-08-17T08:35:47.670Z,22.70
2022-08-17T08:38:23.481Z,24.50
2022-08-17T08:41:06.330Z,23.27
2022-08-17T08:43:40.806Z,23.10
2022-08-17T08:46:18.447Z,21.47
2022-08-17T08:49:11.894Z,21.97
2022-08-17T08:51:51.728Z,22.00
2022-08-17T08:54:31.610Z,19.97
2022-08-17T08:57:25.619Z,21.30
2022-08-17T09:00:12.715Z,21.83
2022-08-17T09:03:09.776Z,21.83
2022-08-17T09:05:53.364Z,21.27
2022-08-17T09:08:32.214Z,20.80
2022-08-17T09:11:04.296Z,21.23
2022-08-17T09:13:41.858Z,20.43
2022-08-17T09:16:16.353Z,17.43
2022-08-17T09:18:59.866Z,17.60
2022-08-17T09:21:38.070Z,17.50
2022-08-17T09:24:22.760Z,18.30
2022-08-17T09:26:55.780Z,17.57
2022-08-17T09:29:26.338Z,18.53
2022-08-17T09:31:58.048Z,18.57
2022-08-17T09:34:33.450Z,17.93
2022-08-17T09:37:16.780Z,20.23
2022-08-17T09:39:52.361Z,25.33
2022-08-17T09:42:27.040Z,25.40
2022-08-17T09:45:03.939Z,20.93
2022-08-17T09:47:45.326Z,27.23
2022-08-17T09:51:05.300Z,31.40
2022-08-17T09:53:10.309Z,32.23
2022-08-17T09:56:07.033Z,33.43
2022-08-17T09:58:44.008Z,32.57
2022-08-17T10:01:31.508Z,35.23
2022-08-17T10:04:14.106Z,33.10
2022-08-17T10:06:53.248Z,34.83
2022-08-17T10:09:36.818Z,32.50
2022-08-17T10:12:20.252Z,33.73
2022-08-17T10:15:09.460Z,35.07
2022-08-17T10:17:45.807Z,36.77
2022-08-17T10:20:18.759Z,31.20
2022-08-17T10:23:09.121Z,29.67
2022-08-17T10:26:07.675Z,32.59
2022-08-17T10:28:45.691Z,36.07
2022-08-17T10:31:40.509Z,37.50
2022-08-17T10:34:40.360Z,39.63
2022-08-17T10:37:34.044Z,36.63
2022-08-17T10:40:23.486Z,32.60
2022-08-17T10:42:58.915Z,31.87
2022-08-17T10:45:32.529Z,37.53
2022-08-17T10:48:06.213Z,34.30
2022-08-17T10:50:59.556Z,30.40
2022-08-17T10:54:01.563Z,32.40
2022-08-17T10:56:48.045Z,27.33
2022-08-17T10:59:51.293Z,31.93
2022-08-17T11:02:26.039Z,34.87
2022-08-17T11:05:29.986Z,32.37
2022-08-17T11:08:18.983Z,25.73
2022-08-17T11:11:02.438Z,31.13
2022-08-17T11:13:39.903Z,33.03
2022-08-17T11:16:26.952Z,31.73
2022-08-17T11:19:36.592Z,35.23
2022-08-17T11:22:33.951Z,33.03
2022-08-17T11:25:15.538Z,29.83
2022-08-17T11:27:45.024Z,29.17
2022-08-17T11:30:15.558Z,32.17
2022-08-17T11:32:52.956Z,27.33
2022-08-17T11:35:34.667Z,34.17
2022-08-17T11:38:16.384Z,27.03
2022-08-17T11:41:03.383Z,37.50
2022-08-17T11:43:57.124Z,35.77
2022-08-17T11:46:51.926Z,37.13
2022-08-17T11:49:52.928Z,30.30
2022-08-17T11:52:39.875Z,33.90
2022-08-17T11:55:34.125Z,27.93
2022-08-17T11:58:07.314Z,23.93
2022-08-17T12:00:54.671Z,26.70
2022-08-17T12:03:56.013Z,35.27
2022-08-17T12:06:44.980Z,35.93
2022-08-17T12:09:17.939Z,34.33
2022-08-17T12:11:55.433Z,33.17
2022-08-17T12:15:12.386Z,31.97
2022-08-17T12:17:52.275Z,35.03
2022-08-17T12:20:25.423Z,33.00
2022-08-17T12:23:04.094Z,36.00
2022-08-17T12:25:37.336Z,33.93
2022-08-17T12:28:20.034Z,36.17
2022-08-17T12:30:51.960Z,33.87
2022-08-17T12:33:25.389Z,39.93
2022-08-17T12:36:02.887Z,39.67
2022-08-17T12:38:34.611Z,39.27
2022-08-17T12:41:25.233Z,37.17
2022-08-17T12:44:01.460Z,36.83
2022-08-17T12:46:30.194Z,29.77
2022-08-17T12:49:13.498Z,28.66
2022-08-17T12:51:45.088Z,31.80
2022-08-17T12:54:26.150Z,36.87
2022-08-17T12:56:54.667Z,29.80
2022-08-17T12:59:30.330Z,35.80
2022-08-17T13:01:58.897Z,34.27
2022-08-17T13:04:29.730Z,33.60
2022-08-17T13:06:59.921Z,25.30
2022-08-17T13:09:35.554Z,33.50
2022-08-17T13:12:05.097Z,37.17
2022-08-17T13:14:35.198Z,34.23
2022-08-17T13:17:09.737Z,35.57
2022-08-17T13:19:48.921Z,33.53
2022-08-17T13:22:16.844Z,37.57
2022-08-17T13:24:54.212Z,34.87
2022-08-17T13:27:25.003Z,38.47
2022-08-17T13:29:57.197Z,33.73
2022-08-17T13:32:35.834Z,34.20
2022-08-17T13:35:40.541Z,34.73
2022-08-17T13:38:11.885Z,23.67
2022-08-17T13:40:43.711Z,24.57
2022-08-17T13:43:12.060Z,31.97
2022-08-17T13:45:51.799Z,28.33
2022-08-17T13:48:26.770Z,23.90
2022-08-17T13:51:27.970Z,27.03
2022-08-17T13:54:20.409Z,35.00
2022-08-17T13:56:59.228Z,30.80
2022-08-17T13:59:54.585Z,35.27
2022-08-17T14:02:28.306Z,36.77
2022-08-17T14:04:57.790Z,34.63
2022-08-17T14:07:37.164Z,34.57
2022-08-17T14:10:13.113Z,29.13
2022-08-17T14:12:43.641Z,27.10
2022-08-17T14:15:13.383Z,27.33
2022-08-17T14:17:41.839Z,28.63
2022-08-17T14:20:12.880Z,29.37
2022-08-17T14:22:46.317Z,28.57
2022-08-17T14:25:16.319Z,25.87
2022-08-17T14:27:53.422Z,26.50
2022-08-17T14:30:24.255Z,25.40
2022-08-17T14:32:52.978Z,26.67
2022-08-17T14:35:23.765Z,28.73
2022-08-17T14:37:53.695Z,32.10
2022-08-17T14:40:24.542Z,26.80
2022-08-17T14:42:53.931Z,29.37
2022-08-17T14:45:32.370Z,31.70
2022-08-17T14:48:03.898Z,30.67
2022-08-17T14:50:35.166Z,28.23
2022-08-17T14:53:06.248Z,39.03
2022-08-17T14:55:34.980Z,38.43
2022-08-17T14:58:03.866Z,37.47
2022-08-17T15:00:31.819Z,39.27
2022-08-17T15:03:01.153Z,35.37
2022-08-17T15:05:31.707Z,37.17
2022-08-17T15:07:59.815Z,33.57
2022-08-17T15:10:30.232Z,33.43
2022-08-17T15:12:58.454Z,34.53
2022-08-17T15:15:26.931Z,35.57
2022-08-17T15:17:54.938Z,33.37
2022-08-17T15:20:27.498Z,37.00
2022-08-17T15:22:57.054Z,38.03
2022-08-17T15:25:26.545Z,31.70
2022-08-17T15:27:56.419Z,35.60
2022-08-17T15:30:25.638Z,30.37
2022-08-17T15:32:55.056Z,30.03
2022-08-17T15:35:27.406Z,35.73
2022-08-17T15:38:04.533Z,30.93
2022-08-17T15:40:34.951Z,32.67
2022-08-17T15:43:07.472Z,29.93
2022-08-17T15:45:35.636Z,28.90
2022-08-17T15:48:03.785Z,25.87
2022-08-17T15:50:31.956Z,25.83
2022-08-17T15:53:02.122Z,22.43
2022-08-17T15:55:31.651Z,22.87
2022-08-17T15:57:59.824Z,25.30
2022-08-17T16:00:29.593Z,24.70
2022-08-17T16:03:45.965Z,25.93
2022-08-17T16:05:47.866Z,23.27
2022-08-17T16:08:20.692Z,24.40
2022-08-17T16:10:49.640Z,26.00
2022-08-17T16:13:19.778Z,24.00
2022-08-17T16:15:56.609Z,23.80
2022-08-17T16:18:30.852Z,21.17
2022-08-17T16:21:19.277Z,21.20
2022-08-17T16:23:47.396Z,19.57
2022-08-17T16:26:15.970Z,17.00
2022-08-17T16:28:43.863Z,19.27
2022-08-17T16:31:14.283Z,20.87
2022-08-17T16:33:42.849Z,15.97
2022-08-17T16:36:31.084Z,18.57
2022-08-17T16:38:59.307Z,18.83
2022-08-17T16:41:45.352Z,16.43
2022-08-17T16:44:15.392Z,16.60
2022-08-17T16:46:46.070Z,16.40
2022-08-17T16:49:36.009Z,17.27
2022-08-17T16:52:03.840Z,14.90
2022-08-17T16:54:31.827Z,16.83
2022-08-17T16:57:00.123Z,18.20
2022-08-17T16:59:30.925Z,16.77
2022-08-17T17:02:10.812Z,19.03
2022-08-17T17:04:44.193Z,17.07
2022-08-17T17:07:33.692Z,16.43
2022-08-17T17:10:06.151Z,17.37
2022-08-17T17:13:02.939Z,21.90
2022-08-17T17:15:25.811Z,17.53
2022-08-17T17:18:06.090Z,21.03
2022-08-17T17:20:43.684Z,18.17
2022-08-17T17:23:23.609Z,18.20
2022-08-17T17:26:00.156Z,18.43
2022-08-17T17:28:46.207Z,20.30
2022-08-17T17:31:17.844Z,21.73
2022-08-17T17:33:50.845Z,22.47
2022-08-17T17:36:27.145Z,24.00
2022-08-17T17:39:00.560Z,22.90
2022-08-17T17:41:33.776Z,20.00
2022-08-17T17:44:06.174Z,18.73
2022-08-17T17:46:39.158Z,17.90
2022-08-17T17:49:10.480Z,19.70
2022-08-17T17:52:09.453Z,16.80
2022-08-17T17:54:49.541Z,18.40
2022-08-17T17:57:24.581Z,17.60
2022-08-17T18:00:02.093Z,17.23
2022-08-17T18:02:54.618Z,17.30
2022-08-17T18:05:39.112Z,17.63
2022-08-17T18:08:16.914Z,20.73
2022-08-17T18:10:55.655Z,19.63
2022-08-17T18:13:35.365Z,17.70
2022-08-17T18:16:06.725Z,19.63
2022-08-17T18:18:39.700Z,19.20
2022-08-17T18:21:16.271Z,21.10
2022-08-17T18:23:48.816Z,17.93
2022-08-17T18:26:37.524Z,18.40
2022-08-17T18:29:26.346Z,15.87
2022-08-17T18:32:28.553Z,21.30
2022-08-17T18:34:59.751Z,20.97
2022-08-17T18:37:38.095Z,22.03
2022-08-17T18:40:27.697Z,21.13
2022-08-17T18:43:12.696Z,25.27
2022-08-17T18:45:45.655Z,28.57
2022-08-17T18:48:22.546Z,30.57
2022-08-17T18:50:53.504Z,28.47
2022-08-17T18:53:30.240Z,30.00
2022-08-17T18:56:22.300Z,40.67
2022-08-17T18:59:07.150Z,31.83
2022-08-17T19:01:53.211Z,35.23
2022-08-17T19:04:34.646Z,43.00
2022-08-17T19:07:06.403Z,36.60
2022-08-17T19:09:41.104Z,36.20
2022-08-17T19:12:13.232Z,37.17
2022-08-17T19:14:42.195Z,44.47
2022-08-17T19:17:24.266Z,42.93
2022-08-17T19:19:57.520Z,39.50
2022-08-17T19:22:31.268Z,44.03
2022-08-17T19:25:10.397Z,44.73
2022-08-17T19:27:49.106Z,48.50
2022-08-17T19:30:20.207Z,47.10
2022-08-17T19:32:48.241Z,39.97
2022-08-17T19:35:20.053Z,39.60
2022-08-17T19:37:59.478Z,36.53
2022-08-17T19:40:52.281Z,36.57
2022-08-17T19:43:30.457Z,37.57
2022-08-17T19:46:05.913Z,38.53
2022-08-17T19:48:42.717Z,37.00
2022-08-17T19:51:14.629Z,35.63
2022-08-17T19:54:06.894Z,37.53
2022-08-17T19:56:47.090Z,35.10
2022-08-17T19:59:23.509Z,34.33
2022-08-17T20:01:54.874Z,36.40
2022-08-17T20:04:35.561Z,37.03
2022-08-17T20:07:07.416Z,34.07
2022-08-17T20:09:39.948Z,36.07
2022-08-17T20:12:14.207Z,37.23
2022-08-17T20:14:53.368Z,36.00
2022-08-17T20:17:25.950Z,33.67
2022-08-17T20:22:54.310Z,38.87
2022-08-17T20:25:32.218Z,35.10
2022-08-17T20:28:07.162Z,33.63
2022-08-17T20:30:38.842Z,35.90
2022-08-17T20:33:13.230Z,35.93
2022-08-17T20:36:01.143Z,33.03
2022-08-17T20:38:42.414Z,41.50
2022-08-17T20:41:14.418Z,36.97
2022-08-17T20:44:01.603Z,34.80
2022-08-17T20:46:52.479Z,36.33
2022-08-17T20:49:26.931Z,33.27
2022-08-17T20:52:02.369Z,37.43
2022-08-17T20:54:47.821Z,37.77
2022-08-17T20:57:49.111Z,38.47
2022-08-17T21:00:46.601Z,37.77
2022-08-17T21:03:51.845Z,40.43
2022-08-17T21:06:25.407Z,39.53
2022-08-17T21:08:59.492Z,41.77
2022-08-17T21:11:57.211Z,42.40
2022-08-17T21:14:54.121Z,41.60
2022-08-17T21:17:41.802Z,40.83
2022-08-17T21:20:24.072Z,42.17
2022-08-17T21:23:07.662Z,41.93
2022-08-17T21:26:02.792Z,40.37
2022-08-17T21:29:00.292Z,40.27
2022-08-17T21:31:35.262Z,43.97
2022-08-17T21:34:28.358Z,42.80
2022-08-17T21:37:17.711Z,41.60
2022-08-17T21:39:51.754Z,41.10
2022-08-17T21:42:25.254Z,43.63
2022-08-17T21:44:58.891Z,47.03
2022-08-17T21:47:28.811Z,45.87
2022-08-17T21:50:15.995Z,46.73
2022-08-17T21:52:44.409Z,47.23
2022-08-17T21:55:22.441Z,52.20
2022-08-17T21:57:52.950Z,50.33
2022-08-17T22:00:39.117Z,49.20
2022-08-17T22:03:22.467Z,46.43
2022-08-17T22:05:51.796Z,47.97
2022-08-17T22:08:22.375Z,47.07
2022-08-17T22:10:51.959Z,46.03
2022-08-17T22:13:23.219Z,50.53
2022-08-17T22:16:28.428Z,52.10
2022-08-17T22:18:57.846Z,48.47
2022-08-17T22:21:27.672Z,50.37
2022-08-17T22:24:05.769Z,48.13
2022-08-17T22:27:07.845Z,50.87
2022-08-17T22:29:58.077Z,49.77
2022-08-17T22:32:38.260Z,55.53
2022-08-17T22:35:38.579Z,66.60
2022-08-17T22:38:28.584Z,53.03
2022-08-17T22:41:13.484Z,55.13
2022-08-17T22:43:44.670Z,53.80
2022-08-17T22:46:14.910Z,53.70
2022-08-17T22:48:49.017Z,51.07
2022-08-17T22:51:21.561Z,56.17
2022-08-17T22:54:11.411Z,50.17
2022-08-17T22:57:05.250Z,57.50
2022-08-17T22:59:37.879Z,60.07
2022-08-17T23:02:21.600Z,64.40
2022-08-17T23:04:52.325Z,64.13
2022-08-17T23:07:21.162Z,55.17
2022-08-17T23:09:51.955Z,55.83
2022-08-17T23:12:26.229Z,60.10
2022-08-17T23:15:00.530Z,55.00
2022-08-17T23:17:33.910Z,54.27
2022-08-17T23:20:06.310Z,53.37
2022-08-17T23:22:34.539Z,54.70
2022-08-17T23:25:03.877Z,52.33
2022-08-17T23:27:32.290Z,51.43
2022-08-17T23:30:00.198Z,59.70
2022-08-17T23:32:28.521Z,58.90
2022-08-17T23:34:59.066Z,57.63
2022-08-17T23:37:27.522Z,46.07
2022-08-17T23:39:55.443Z,58.13
2022-08-17T23:42:24.808Z,47.47
2022-08-17T23:44:52.696Z,49.57
2022-08-17T23:47:21.195Z,47.20
2022-08-17T23:49:49.044Z,47.20
2022-08-17T23:52:22.942Z,51.70
2022-08-17T23:54:50.816Z,45.37
2022-08-17T23:57:35.877Z,57.97
